Time;durP1;ratioP1;P1;durP2;ratioP2;P2;SDS_P1;SDS_P2;PMS_P1;PMS_P2;Temp;Humidity;BMP_temperature;BMP_pressure;BME280_temperature;BME280_humidity;BME280_pressure;Samples;Min_cycle;Max_cycle;Signal;HPM_P1;HPM_P2
2021/03/28 00:00:00;;;;;;;1.58;0.45;;;4.00;99.90;;;;;;4979585;28;20065;-64
2021/03/28 00:02:51;;;;;;;3.47;0.65;;;4.00;99.90;;;;;;4981930;28;20051;-66
2021/03/28 00:05:29;;;;;;;3.50;0.82;;;4.00;99.90;;;;;;4982911;28;20054;-68
2021/03/28 00:07:59;;;;;;;1.50;0.80;;;4.00;99.90;;;;;;4982700;28;20062;-66
2021/03/28 00:10:47;;;;;;;3.30;0.80;;;4.00;99.90;;;;;;4979951;28;20058;-65
2021/03/28 00:13:18;;;;;;;2.83;1.02;;;4.00;99.90;;;;;;4981628;28;20156;-65
2021/03/28 00:15:57;;;;;;;1.50;0.70;;;4.00;99.90;;;;;;4977700;28;20543;-68
2021/03/28 00:19:18;;;;;;;1.25;0.98;;;4.00;99.90;;;;;;4981871;28;20518;-66
2021/03/28 00:21:57;;;;;;;1.75;0.90;;;3.90;99.90;;;;;;4982911;28;20656;-63
2021/03/28 00:24:29;;;;;;;2.67;0.90;;;3.90;99.90;;;;;;4976456;28;20330;-63
2021/03/28 00:27:07;;;;;;;5.15;0.80;;;3.90;99.90;;;;;;4981432;28;20050;-71
2021/03/28 00:30:01;;;;;;;6.15;0.80;;;3.80;99.90;;;;;;4980362;28;20392;-69
2021/03/28 00:32:48;;;;;;;2.92;1.05;;;3.80;99.90;;;;;;4980722;28;20106;-66
2021/03/28 00:35:18;;;;;;;0.82;0.82;;;3.80;99.90;;;;;;4982179;28;20069;-68
2021/03/28 00:37:57;;;;;;;5.05;2.97;;;3.80;99.90;;;;;;4977448;28;20046;-63
2021/03/28 00:40:28;;;;;;;5.18;1.10;;;3.70;99.90;;;;;;4977580;28;20065;-66
2021/03/28 00:43:19;;;;;;;1.42;0.60;;;3.70;99.90;;;;;;4981566;28;20050;-68
2021/03/28 00:45:56;;;;;;;3.88;1.35;;;3.70;99.90;;;;;;4982730;28;20148;-65
2021/03/28 00:48:28;;;;;;;3.55;0.93;;;3.70;99.90;;;;;;4960552;28;20046;-64
2021/03/28 00:51:10;;;;;;;4.18;2.28;;;3.70;99.90;;;;;;4978846;28;20050;-63
2021/03/28 00:54:15;;;;;;;4.07;1.58;;;3.70;99.90;;;;;;4993946;28;20076;-71
2021/03/28 00:56:51;;;;;;;1.98;1.25;;;3.70;99.90;;;;;;5009402;28;21551;-63
2021/03/28 00:59:34;;;;;;;3.78;1.95;;;3.70;99.90;;;;;;4980154;28;20058;-66
2021/03/28 01:02:32;;;;;;;4.55;2.17;;;3.70;99.90;;;;;;4979495;28;20515;-64
2021/03/28 01:04:59;;;;;;;7.65;2.40;;;3.70;99.90;;;;;;4979022;28;20139;-68
2021/03/28 01:07:43;;;;;;;6.18;1.60;;;3.70;99.90;;;;;;4980443;28;20563;-66
2021/03/28 01:10:41;;;;;;;5.63;2.47;;;3.80;99.90;;;;;;4977392;28;20046;-62
2021/03/28 01:13:59;;;;;;;4.90;1.52;;;3.80;99.90;;;;;;4980959;28;20495;-63
2021/03/28 01:16:56;;;;;;;3.55;2.13;;;3.80;99.90;;;;;;4976298;28;20058;-65
2021/03/28 01:19:50;;;;;;;3.03;1.25;;;3.80;99.90;;;;;;4980555;28;20464;-66
2021/03/28 01:22:19;;;;;;;4.45;1.55;;;3.90;99.90;;;;;;4978147;28;20195;-63
2021/03/28 01:24:51;;;;;;;4.32;1.40;;;3.90;99.90;;;;;;4982105;28;20528;-64
2021/03/28 01:27:53;;;;;;;7.07;2.35;;;3.90;99.90;;;;;;4981649;28;20076;-63
2021/03/28 01:30:34;;;;;;;5.07;1.50;;;4.00;99.90;;;;;;4976174;28;20137;-66
2021/03/28 01:33:15;;;;;;;3.60;1.42;;;4.00;99.90;;;;;;4981944;28;20054;-66
2021/03/28 01:36:08;;;;;;;8.55;2.42;;;4.00;99.90;;;;;;4976726;28;21017;-68
2021/03/28 01:38:40;;;;;;;1.50;1.40;;;4.00;99.90;;;;;;4952091;28;20054;-65
2021/03/28 01:41:27;;;;;;;10.75;1.50;;;4.00;99.90;;;;;;4979003;28;20058;-64
2021/03/28 01:44:16;;;;;;;4.15;1.20;;;4.00;99.90;;;;;;4980792;28;20050;-68
2021/03/28 01:46:57;;;;;;;5.43;1.40;;;4.00;99.90;;;;;;4977638;28;20077;-65
2021/03/28 01:49:41;;;;;;;4.07;1.27;;;4.00;99.90;;;;;;4975556;28;20129;-66
2021/03/28 01:52:43;;;;;;;5.00;1.85;;;4.00;99.90;;;;;;4977468;28;20054;-63
2021/03/28 01:55:38;;;;;;;10.25;2.47;;;4.10;99.90;;;;;;4965763;28;20054;-63
2021/03/28 01:58:30;;;;;;;7.38;1.85;;;4.10;99.90;;;;;;4978268;28;20058;-62
2021/03/28 02:01:18;;;;;;;5.57;1.75;;;4.10;99.90;;;;;;4979595;28;20427;-67
2021/03/28 02:04:04;;;;;;;2.22;2.00;;;4.10;99.90;;;;;;4984029;28;20055;-71
2021/03/28 02:06:40;;;;;;;8.02;2.55;;;4.10;99.90;;;;;;4978145;28;20046;-66
2021/03/28 02:09:15;;;;;;;7.75;1.70;;;4.20;99.90;;;;;;4977770;28;20100;-69
2021/03/28 02:12:03;;;;;;;4.97;2.05;;;4.20;99.90;;;;;;4981716;28;20054;-68
2021/03/28 02:15:21;;;;;;;5.20;1.63;;;4.20;99.90;;;;;;4977519;28;20058;-63
2021/03/28 02:18:05;;;;;;;10.75;1.95;;;4.30;99.90;;;;;;4967173;28;20144;-65
2021/03/28 02:20:42;;;;;;;2.13;1.17;;;4.30;99.90;;;;;;4975336;28;20054;-68
2021/03/28 02:23:47;;;;;;;7.05;2.25;;;4.30;99.90;;;;;;4982629;28;20050;-70
2021/03/28 02:26:41;;;;;;;8.88;2.50;;;4.30;99.90;;;;;;4950197;28;20066;-65
2021/03/28 02:29:08;;;;;;;2.78;2.22;;;4.30;99.90;;;;;;4973405;28;20204;-64
2021/03/28 02:32:25;;;;;;;7.03;2.10;;;4.30;99.90;;;;;;4981084;28;20065;-63
2021/03/28 02:34:57;;;;;;;4.50;3.30;;;4.30;99.90;;;;;;4959579;28;20101;-66
2021/03/28 02:37:55;;;;;;;3.00;2.03;;;4.30;99.90;;;;;;4995289;28;20054;-68
2021/03/28 02:40:34;;;;;;;3.80;1.77;;;4.30;99.90;;;;;;4983294;28;20057;-64
2021/03/28 02:43:06;;;;;;;5.03;1.67;;;4.30;99.90;;;;;;4982362;28;20556;-66
2021/03/28 02:45:43;;;;;;;5.22;2.97;;;4.30;99.90;;;;;;4982480;28;20112;-63
2021/03/28 02:48:44;;;;;;;5.75;3.13;;;4.40;99.90;;;;;;4979488;28;20058;-70
2021/03/28 02:51:25;;;;;;;4.95;1.83;;;4.40;99.90;;;;;;4982387;28;20142;-62
2021/03/28 02:54:21;;;;;;;8.70;2.25;;;4.30;99.90;;;;;;4982215;28;20130;-63
2021/03/28 02:57:09;;;;;;;5.57;2.88;;;4.30;99.90;;;;;;4979666;28;20164;-64
2021/03/28 03:00:02;;;;;;;11.85;3.10;;;4.30;99.90;;;;;;4981039;28;20062;-65
2021/03/28 03:02:38;;;;;;;7.30;2.85;;;4.30;99.90;;;;;;4982125;28;20116;-69
2021/03/28 03:05:16;;;;;;;12.65;2.97;;;4.30;99.90;;;;;;4984019;28;20057;-67
2021/03/28 03:08:06;;;;;;;6.88;2.85;;;4.30;99.90;;;;;;4982874;28;20449;-67
2021/03/28 03:10:56;;;;;;;7.15;2.85;;;4.30;99.90;;;;;;4977706;28;20054;-67
2021/03/28 03:13:46;;;;;;;8.68;2.67;;;4.30;99.90;;;;;;4982049;28;20108;-63
2021/03/28 03:16:47;;;;;;;6.90;2.47;;;4.30;99.90;;;;;;4977786;28;20045;-65
2021/03/28 03:19:25;;;;;;;9.05;2.42;;;4.40;99.90;;;;;;4982811;28;20079;-66
2021/03/28 03:22:12;;;;;;;3.83;2.40;;;4.40;99.90;;;;;;4981672;28;20090;-68
2021/03/28 03:25:03;;;;;;;6.93;3.15;;;4.40;99.90;;;;;;4991389;28;20054;-67
2021/03/28 03:27:32;;;;;;;7.05;1.92;;;4.40;99.90;;;;;;4980343;28;20553;-67
2021/03/28 03:30:22;;;;;;;8.25;2.72;;;4.40;99.90;;;;;;4980187;28;20050;-67
2021/03/28 03:33:23;;;;;;;13.70;2.72;;;4.40;99.90;;;;;;4981221;28;20050;-68
2021/03/28 03:35:58;;;;;;;14.93;6.65;;;4.40;99.90;;;;;;4983023;28;20050;-66
2021/03/28 03:38:35;;;;;;;13.40;5.97;;;4.40;99.90;;;;;;4980514;28;20048;-66
2021/03/28 03:41:21;;;;;;;12.43;3.63;;;4.30;99.90;;;;;;4984350;28;20111;-67
2021/03/28 03:44:08;;;;;;;13.82;3.78;;;4.30;99.90;;;;;;4982058;28;20057;-63
2021/03/28 03:46:53;;;;;;;14.45;3.92;;;4.40;99.90;;;;;;4979648;28;20057;-65
2021/03/28 03:49:30;;;;;;;9.57;3.42;;;4.30;99.90;;;;;;4978216;28;20038;-66
2021/03/28 03:52:24;;;;;;;11.02;3.42;;;4.40;99.90;;;;;;4977080;28;20683;-63
2021/03/28 03:55:03;;;;;;;10.55;3.42;;;4.40;99.90;;;;;;4981778;28;20046;-64
2021/03/28 03:57:47;;;;;;;12.18;3.45;;;4.40;99.90;;;;;;4980155;28;20047;-69
2021/03/28 04:00:14;;;;;;;7.18;3.25;;;4.40;99.90;;;;;;4980721;28;20050;-64
2021/03/28 04:03:21;;;;;;;9.38;3.42;;;4.40;99.90;;;;;;4978716;28;20054;-67
2021/03/28 04:06:09;;;;;;;9.25;2.40;;;4.40;99.90;;;;;;4930988;28;20067;-66
2021/03/28 04:08:47;;;;;;;7.65;3.80;;;4.40;99.90;;;;;;4927627;28;20071;-67
2021/03/28 04:11:38;;;;;;;10.02;4.28;;;4.40;99.90;;;;;;4967075;28;20120;-70
2021/03/28 04:14:34;;;;;;;11.15;3.30;;;4.50;99.90;;;;;;4978539;28;20042;-65
2021/03/28 04:17:33;;;;;;;8.65;3.53;;;4.50;99.90;;;;;;4980527;28;20065;-68
2021/03/28 04:20:11;;;;;;;9.20;2.00;;;4.50;99.90;;;;;;4964850;28;20058;-66
2021/03/28 04:23:16;;;;;;;4.68;3.35;;;4.50;99.90;;;;;;4978439;28;20062;-63
2021/03/28 04:25:53;;;;;;;5.45;2.83;;;4.50;99.90;;;;;;4980683;28;20058;-64
2021/03/28 04:28:47;;;;;;;7.88;2.65;;;4.50;99.90;;;;;;4979915;28;20376;-66
2021/03/28 04:31:42;;;;;;;8.30;2.78;;;4.50;99.90;;;;;;4980155;28;20492;-71
2021/03/28 04:34:43;;;;;;;5.85;2.53;;;4.50;99.90;;;;;;4979177;28;20039;-64
2021/03/28 04:37:47;;;;;;;12.30;3.25;;;4.50;99.90;;;;;;4978749;28;20105;-72
2021/03/28 04:40:19;;;;;;;6.82;2.38;;;4.50;99.90;;;;;;4980719;28;20043;-69
2021/03/28 04:42:51;;;;;;;9.10;3.58;;;4.50;99.90;;;;;;4979399;28;20444;-67
2021/03/28 04:45:49;;;;;;;8.65;2.30;;;4.50;99.90;;;;;;4997238;28;20071;-67
2021/03/28 04:48:58;;;;;;;6.40;2.50;;;4.50;99.90;;;;;;4980275;28;20047;-64
2021/03/28 04:52:02;;;;;;;8.73;1.85;;;4.50;99.90;;;;;;4959229;28;20074;-64
2021/03/28 04:55:08;;;;;;;11.30;3.30;;;4.50;99.90;;;;;;4976005;28;20115;-68
2021/03/28 04:57:43;;;;;;;10.27;2.60;;;4.50;99.90;;;;;;4975351;28;20061;-65
2021/03/28 05:00:25;;;;;;;8.70;2.10;;;4.50;99.90;;;;;;4993019;28;20056;-62
2021/03/28 05:03:08;;;;;;;4.18;2.05;;;4.40;99.90;;;;;;4992268;28;20629;-66
2021/03/28 05:05:46;;;;;;;8.82;2.45;;;4.40;99.90;;;;;;4984278;28;20043;-63
2021/03/28 05:08:50;;;;;;;7.70;2.30;;;4.40;99.90;;;;;;4977256;28;20097;-68
2021/03/28 05:11:24;;;;;;;11.40;2.60;;;4.40;99.90;;;;;;4978706;28;20069;-63
2021/03/28 05:14:19;;;;;;;7.53;1.65;;;4.30;99.90;;;;;;4976806;28;20141;-62
2021/03/28 05:17:04;;;;;;;7.35;2.58;;;4.30;99.90;;;;;;4978969;28;20069;-70
2021/03/28 05:19:52;;;;;;;3.97;2.15;;;4.20;99.90;;;;;;5008534;28;20152;-63
2021/03/28 05:22:59;;;;;;;10.23;2.17;;;4.20;99.90;;;;;;4977474;28;20128;-64
2021/03/28 05:25:34;;;;;;;4.07;1.33;;;4.10;99.90;;;;;;4983480;28;20057;-68
2021/03/28 05:28:40;;;;;;;5.22;1.90;;;4.10;99.90;;;;;;4974512;28;20062;-66
2021/03/28 05:31:25;;;;;;;3.08;1.73;;;4.10;99.90;;;;;;4981029;28;20046;-63
2021/03/28 05:34:22;;;;;;;12.05;5.95;;;4.00;99.90;;;;;;4979014;28;20452;-63
2021/03/28 05:37:30;;;;;;;4.63;1.35;;;4.10;99.90;;;;;;4977836;28;20096;-68
2021/03/28 05:40:21;;;;;;;8.25;1.85;;;4.10;99.90;;;;;;4969858;28;20088;-65
2021/03/28 05:43:12;;;;;;;9.40;1.90;;;4.10;99.90;;;;;;4978336;28;20054;-63
2021/03/28 05:45:57;;;;;;;5.97;1.70;;;4.10;99.90;;;;;;4996146;28;20112;-63
2021/03/28 05:48:56;;;;;;;5.40;2.00;;;4.10;99.90;;;;;;4976382;28;20053;-64
2021/03/28 05:51:40;;;;;;;4.20;1.55;;;4.10;99.90;;;;;;4948788;28;20140;-66
2021/03/28 05:54:35;;;;;;;9.93;2.42;;;4.10;99.90;;;;;;4976721;28;20069;-64
2021/03/28 05:57:26;;;;;;;12.00;3.20;;;4.10;99.90;;;;;;4981195;28;20066;-67
2021/03/28 06:00:18;;;;;;;7.40;2.25;;;4.10;99.90;;;;;;4978498;28;20046;-64
2021/03/28 06:03:14;;;;;;;6.82;2.28;;;4.10;99.90;;;;;;4976563;28;20050;-65
2021/03/28 06:05:49;;;;;;;6.70;2.42;;;4.10;99.90;;;;;;4981716;28;20431;-67
2021/03/28 06:08:40;;;;;;;6.65;1.80;;;4.10;99.90;;;;;;4978064;28;20615;-63
2021/03/28 06:11:31;;;;;;;6.60;1.80;;;4.20;99.90;;;;;;4976204;28;20092;-67
2021/03/28 06:14:36;;;;;;;7.70;1.75;;;4.20;99.90;;;;;;4980355;28;21479;-68
2021/03/28 06:17:23;;;;;;;8.10;1.95;;;4.20;99.90;;;;;;4981208;28;20058;-63
2021/03/28 06:19:56;;;;;;;2.30;1.63;;;4.20;99.90;;;;;;4983220;28;20134;-66
2021/03/28 06:22:47;;;;;;;4.97;1.45;;;4.30;99.90;;;;;;4979651;28;20545;-65
2021/03/28 06:25:44;;;;;;;6.57;2.30;;;4.30;99.90;;;;;;4983592;28;20057;-64
2021/03/28 06:28:35;;;;;;;7.18;1.95;;;4.30;99.90;;;;;;4981160;28;20050;-63
2021/03/28 06:31:19;;;;;;;5.47;2.65;;;4.30;99.90;;;;;;4980688;28;20492;-68
2021/03/28 06:34:15;;;;;;;3.08;1.50;;;4.40;99.90;;;;;;4982584;28;20108;-69
2021/03/28 06:37:29;;;;;;;4.20;1.50;;;4.40;99.90;;;;;;4983268;28;20765;-66
2021/03/28 06:40:05;;;;;;;5.90;2.00;;;4.40;99.90;;;;;;4976330;28;20049;-64
2021/03/28 06:42:54;;;;;;;13.88;2.97;;;4.40;99.90;;;;;;4978936;28;20065;-69
2021/03/28 06:45:42;;;;;;;4.03;2.22;;;4.40;99.90;;;;;;4979866;28;20046;-71
2021/03/28 06:48:27;;;;;;;7.55;2.90;;;4.40;99.90;;;;;;4980282;28;20058;-66
2021/03/28 06:51:23;;;;;;;6.82;4.13;;;4.40;99.90;;;;;;4981700;28;20471;-67
2021/03/28 06:53:52;;;;;;;10.80;4.20;;;4.40;99.90;;;;;;4979917;28;20042;-64
2021/03/28 06:56:27;;;;;;;8.13;1.95;;;4.30;99.90;;;;;;4978102;28;20050;-65
2021/03/28 06:59:32;;;;;;;8.00;2.15;;;4.30;99.90;;;;;;4980093;28;20062;-65
2021/03/28 07:02:42;;;;;;;6.35;2.05;;;4.30;99.90;;;;;;4974397;28;20056;-66
2021/03/28 07:05:22;;;;;;;8.07;2.53;;;4.20;99.90;;;;;;4981075;28;20558;-65
2021/03/28 07:08:09;;;;;;;4.67;2.27;;;4.20;99.90;;;;;;4981588;28;20050;-65
2021/03/28 07:11:12;;;;;;;4.28;1.88;;;4.30;99.90;;;;;;4977215;28;20054;-71
2021/03/28 07:13:59;;;;;;;10.45;2.50;;;4.30;99.90;;;;;;4982786;28;20127;-65
2021/03/28 07:16:55;;;;;;;3.53;2.40;;;4.30;99.90;;;;;;4975091;28;20050;-66
2021/03/28 07:19:21;;;;;;;10.15;3.38;;;4.30;99.90;;;;;;4979945;28;20050;-67
2021/03/28 07:22:06;;;;;;;5.40;2.30;;;4.30;99.90;;;;;;4981584;28;20671;-67
2021/03/28 07:24:56;;;;;;;8.93;2.20;;;4.30;99.90;;;;;;4975118;28;20129;-64
2021/03/28 07:27:47;;;;;;;3.97;2.35;;;4.40;99.90;;;;;;4978237;28;20069;-63
2021/03/28 07:30:13;;;;;;;;;;;4.40;99.90;;;;;;4994027;28;20124;-69
2021/03/28 07:32:58;;;;;;;11.23;2.17;;;4.40;99.90;;;;;;4980292;28;19934;-63
2021/03/28 07:35:28;;;;;;;5.10;2.03;;;4.40;99.90;;;;;;4981896;28;20042;-63
2021/03/28 07:38:28;;;;;;;3.80;2.63;;;4.50;99.90;;;;;;4978339;28;20050;-72
2021/03/28 07:41:10;;;;;;;8.63;3.75;;;4.50;99.90;;;;;;4979468;28;20178;-62
2021/03/28 07:44:09;;;;;;;7.25;2.25;;;4.50;99.90;;;;;;4978250;28;20054;-69
2021/03/28 07:46:54;;;;;;;6.15;2.53;;;4.50;99.90;;;;;;4979313;28;20089;-64
2021/03/28 07:49:58;;;;;;;11.90;2.47;;;4.50;99.90;;;;;;4979504;28;20463;-68
2021/03/28 07:52:49;;;;;;;9.88;3.10;;;4.50;99.90;;;;;;4977187;28;20058;-66
2021/03/28 07:55:24;;;;;;;9.48;3.50;;;4.50;99.90;;;;;;4978407;28;20050;-67
2021/03/28 07:58:22;;;;;;;9.35;2.78;;;4.50;99.90;;;;;;4979499;28;20546;-62
2021/03/28 08:01:16;;;;;;;16.33;3.30;;;4.40;99.90;;;;;;4978745;28;20057;-64
2021/03/28 08:03:45;;;;;;;9.02;3.88;;;4.40;99.90;;;;;;4977818;28;20050;-65
2021/03/28 08:06:21;;;;;;;7.93;2.30;;;4.30;99.90;;;;;;4977703;28;20078;-66
2021/03/28 08:09:09;;;;;;;18.48;4.63;;;4.30;99.90;;;;;;4976312;28;20070;-67
2021/03/28 08:12:17;;;;;;;9.32;2.70;;;4.30;99.90;;;;;;4978924;28;20058;-64
2021/03/28 08:14:58;;;;;;;10.23;3.28;;;4.30;99.90;;;;;;4977230;28;20043;-64
2021/03/28 08:17:47;;;;;;;12.45;4.28;;;4.30;99.90;;;;;;4976140;28;20046;-63
2021/03/28 08:20:22;;;;;;;12.30;3.03;;;4.30;99.90;;;;;;4977637;28;20053;-66
2021/03/28 08:23:05;;;;;;;6.95;2.65;;;4.20;99.90;;;;;;4979027;28;20049;-64
2021/03/28 08:26:16;;;;;;;4.05;2.03;;;4.30;99.90;;;;;;4979002;28;20108;-66
2021/03/28 08:28:58;;;;;;;6.47;3.38;;;4.30;99.90;;;;;;4977095;28;20101;-64
2021/03/28 08:31:31;;;;;;;4.30;2.03;;;4.20;99.90;;;;;;4979857;28;20061;-63
2021/03/28 08:34:22;;;;;;;8.88;3.95;;;4.20;99.90;;;;;;4976170;28;20066;-63
2021/03/28 08:37:29;;;;;;;8.68;3.35;;;4.20;99.90;;;;;;4977814;28;20633;-66
2021/03/28 08:40:19;;;;;;;5.30;2.42;;;4.20;99.90;;;;;;4975522;28;20058;-65
2021/03/28 08:43:16;;;;;;;10.20;2.95;;;4.20;99.90;;;;;;4978439;28;20049;-66
2021/03/28 08:46:01;;;;;;;7.50;2.55;;;4.20;99.90;;;;;;4978472;28;20050;-63
2021/03/28 08:48:58;;;;;;;7.78;3.72;;;4.20;99.90;;;;;;4982025;28;20470;-63
2021/03/28 08:51:32;;;;;;;8.95;4.90;;;4.20;99.90;;;;;;4978145;28;20049;-62
2021/03/28 08:54:12;;;;;;;12.77;3.85;;;4.20;99.90;;;;;;4977559;28;20069;-67
2021/03/28 08:56:53;;;;;;;11.77;3.15;;;4.20;99.90;;;;;;4980102;28;20626;-66
2021/03/28 08:59:37;;;;;;;14.25;3.63;;;4.30;99.90;;;;;;4977479;28;20081;-69
2021/03/28 09:02:07;;;;;;;10.30;3.22;;;4.30;99.90;;;;;;4979000;28;20065;-66
2021/03/28 09:05:13;;;;;;;7.77;3.33;;;4.30;99.90;;;;;;4990380;28;20714;-67
2021/03/28 09:08:23;;;;;;;10.55;3.45;;;4.40;99.90;;;;;;4963339;28;20042;-67
2021/03/28 09:11:18;;;;;;;12.38;3.33;;;4.40;99.90;;;;;;4944935;28;20050;-73
2021/03/28 09:14:11;;;;;;;13.43;4.43;;;4.40;99.90;;;;;;4978463;28;20065;-64
2021/03/28 09:16:51;;;;;;;5.70;4.35;;;4.50;99.90;;;;;;4975972;28;20115;-70
2021/03/28 09:19:49;;;;;;;10.82;4.55;;;4.50;99.90;;;;;;4978417;28;20050;-70
2021/03/28 09:22:30;;;;;;;12.50;4.75;;;4.50;99.90;;;;;;4975389;28;20671;-65
2021/03/28 09:25:38;;;;;;;14.55;4.70;;;4.60;99.90;;;;;;4977531;28;20113;-66
2021/03/28 09:28:30;;;;;;;20.38;5.50;;;4.50;99.90;;;;;;4976570;28;20046;-65
2021/03/28 09:31:32;;;;;;;9.70;4.20;;;4.50;99.90;;;;;;4967393;28;20468;-64
2021/03/28 09:34:23;;;;;;;17.17;7.45;;;4.50;99.90;;;;;;4978370;28;21131;-70
2021/03/28 09:37:02;;;;;;;12.75;5.13;;;4.50;99.90;;;;;;4978772;28;20600;-69
2021/03/28 09:40:20;;;;;;;14.25;4.40;;;4.70;99.90;;;;;;4977328;28;20160;-64
2021/03/28 09:43:20;;;;;;;8.50;3.83;;;4.70;99.90;;;;;;4959517;28;20948;-65
2021/03/28 09:46:40;;;;;;;13.00;5.65;;;4.80;99.90;;;;;;4977531;28;20046;-65
2021/03/28 09:49:44;;;;;;;13.00;3.90;;;4.90;99.90;;;;;;4916001;29;20649;-67
2021/03/28 09:52:51;;;;;;;11.27;5.10;;;5.00;99.90;;;;;;4975924;28;20058;-64
2021/03/28 09:55:43;;;;;;;11.73;6.10;;;5.00;99.90;;;;;;4977716;28;20046;-63
2021/03/28 09:58:34;;;;;;;9.48;3.30;;;5.10;99.90;;;;;;4976468;28;20058;-67
2021/03/28 10:01:39;;;;;;;10.90;3.10;;;5.20;99.90;;;;;;4981591;28;20145;-69
2021/03/28 10:04:27;;;;;;;10.75;3.38;;;5.30;99.90;;;;;;4967132;28;20654;-66
2021/03/28 10:07:02;;;;;;;8.60;2.90;;;5.30;99.90;;;;;;4974080;28;20053;-68
2021/03/28 10:10:00;;;;;;;10.60;2.88;;;5.40;99.90;;;;;;4977368;28;20464;-66
2021/03/28 10:12:50;;;;;;;8.32;3.95;;;5.40;99.90;;;;;;4974972;28;20492;-63
2021/03/28 10:15:25;;;;;;;8.80;3.83;;;5.50;99.90;;;;;;4975425;28;20073;-66
2021/03/28 10:18:25;;;;;;;11.40;4.22;;;5.60;99.90;;;;;;4975716;28;20054;-68
2021/03/28 10:21:07;;;;;;;4.82;2.30;;;5.60;99.90;;;;;;4973587;28;20050;-66
2021/03/28 10:24:27;;;;;;;5.88;2.22;;;5.70;99.90;;;;;;4975681;28;20065;-67
2021/03/28 10:27:01;;;;;;;9.23;3.08;;;5.70;99.90;;;;;;4936701;28;20047;-73
2021/03/28 10:30:10;;;;;;;9.25;2.95;;;5.80;99.90;;;;;;4973191;28;20415;-64
2021/03/28 10:33:19;;;;;;;10.38;2.45;;;5.90;99.90;;;;;;4970540;28;20073;-68
2021/03/28 10:35:57;;;;;;;5.75;2.78;;;5.90;99.90;;;;;;4981425;28;20046;-66
2021/03/28 10:38:42;;;;;;;5.43;2.33;;;5.90;99.90;;;;;;4972762;28;20061;-68
2021/03/28 10:41:38;;;;;;;3.05;2.70;;;5.90;99.90;;;;;;4975660;28;20054;-65
2021/03/28 10:44:45;;;;;;;12.32;4.68;;;5.90;99.90;;;;;;4979917;28;20229;-64
2021/03/28 10:47:15;;;;;;;8.63;3.47;;;5.90;99.90;;;;;;4974654;28;20141;-66
2021/03/28 10:50:09;;;;;;;7.90;2.88;;;5.90;99.90;;;;;;4980060;28;20479;-70
2021/03/28 10:53:00;;;;;;;4.15;1.60;;;5.90;99.90;;;;;;4978092;28;20096;-64
2021/03/28 10:55:58;;;;;;;4.20;2.03;;;5.90;99.90;;;;;;4981055;28;20049;-70
2021/03/28 10:58:52;;;;;;;5.43;2.03;;;6.00;99.90;;;;;;4977425;28;20050;-65
2021/03/28 11:01:45;;;;;;;8.32;2.72;;;6.10;99.90;;;;;;4976494;28;20216;-67
2021/03/28 11:04:43;;;;;;;5.65;2.38;;;6.40;99.90;;;;;;4979018;28;20405;-65
2021/03/28 11:08:06;;;;;;;7.60;4.03;;;6.60;99.90;;;;;;4980674;28;20050;-65
2021/03/28 11:10:53;;;;;;;6.78;2.20;;;6.90;99.90;;;;;;4953668;28;20182;-65
2021/03/28 11:13:47;;;;;;;4.90;2.45;;;7.20;99.90;;;;;;4959796;28;20109;-65
2021/03/28 11:16:32;;;;;;;6.88;2.40;;;7.50;99.90;;;;;;4957740;28;20047;-69
2021/03/28 11:19:36;;;;;;;4.90;2.00;;;7.50;99.90;;;;;;4979971;28;20058;-64
2021/03/28 11:22:49;;;;;;;5.90;3.78;;;7.70;99.90;;;;;;4977291;28;20385;-71
2021/03/28 11:25:31;;;;;;;4.97;2.55;;;7.90;99.90;;;;;;4983014;28;20116;-65
2021/03/28 11:28:03;;;;;;;9.98;4.22;;;7.90;99.90;;;;;;4979361;28;21099;-65
2021/03/28 11:30:32;;;;;;;3.53;1.90;;;7.90;99.90;;;;;;4980396;28;20116;-67
2021/03/28 11:33:14;;;;;;;4.72;2.67;;;7.80;99.90;;;;;;4981035;28;20054;-66
2021/03/28 11:35:56;;;;;;;10.07;3.92;;;7.70;99.90;;;;;;4981570;28;20050;-65
2021/03/28 11:38:22;;;;;;;4.00;1.77;;;7.70;99.90;;;;;;4977132;28;20061;-63
2021/03/28 11:41:13;;;;;;;6.40;2.80;;;7.70;99.90;;;;;;4980416;28;20136;-67
2021/03/28 11:43:48;;;;;;;3.83;1.92;;;7.70;99.90;;;;;;4979218;28;20679;-63
2021/03/28 11:46:53;;;;;;;3.70;2.30;;;7.70;99.90;;;;;;4979238;28;20051;-63
2021/03/28 11:49:23;;;;;;;5.78;2.20;;;7.90;99.90;;;;;;4979359;28;20051;-64
2021/03/28 11:51:52;;;;;;;5.20;2.97;;;7.90;99.90;;;;;;4981555;28;20054;-63
2021/03/28 11:54:23;;;;;;;5.72;2.10;;;7.90;99.90;;;;;;4978369;28;20157;-66
2021/03/28 11:56:54;;;;;;;;;;;7.80;99.90;;;;;;4978298;28;20120;-63
2021/03/28 11:59:24;;;;;;;7.53;2.15;;;7.70;99.90;;;;;;4979769;28;19976;-64
2021/03/28 12:02:12;;;;;;;3.63;1.88;;;7.70;99.90;;;;;;4981238;28;20053;-69
2021/03/28 12:04:41;;;;;;;7.20;2.67;;;7.60;99.90;;;;;;4981814;28;20092;-68
2021/03/28 12:07:17;;;;;;;8.73;2.40;;;7.80;99.90;;;;;;4978785;28;20116;-67
2021/03/28 12:09:52;;;;;;;7.25;2.72;;;7.80;99.90;;;;;;4978651;28;20436;-68
2021/03/28 12:12:33;;;;;;;5.72;2.10;;;8.10;99.90;;;;;;4976432;28;20042;-71
2021/03/28 12:15:37;;;;;;;6.80;2.75;;;8.20;99.90;;;;;;4975095;28;20066;-66
2021/03/28 12:21:06;;;;;;;3.15;1.60;;;8.30;99.90;;;;;;4981725;28;20081;-63
2021/03/28 12:23:48;;;;;;;7.30;2.08;;;8.50;99.90;;;;;;4979329;28;20066;-66
2021/03/28 12:26:22;;;;;;;5.95;1.70;;;8.50;99.90;;;;;;4978397;28;20082;-67
2021/03/28 12:29:03;;;;;;;9.90;2.55;;;8.60;99.90;;;;;;4979887;28;20579;-64
2021/03/28 12:31:41;;;;;;;7.63;2.35;;;8.70;99.90;;;;;;4991950;28;20054;-67
2021/03/28 12:34:07;;;;;;;5.53;2.10;;;8.60;99.90;;;;;;4976790;28;20619;-64
2021/03/28 12:37:05;;;;;;;6.60;1.92;;;8.60;99.90;;;;;;4980732;28;20076;-67
2021/03/28 12:39:37;;;;;;;5.28;1.80;;;8.60;99.90;;;;;;4978918;28;20358;-70
2021/03/28 12:42:44;;;;;;;6.47;1.67;;;8.70;99.90;;;;;;4976295;28;20108;-64
2021/03/28 12:45:11;;;;;;;6.70;1.70;;;8.80;99.90;;;;;;4979570;28;20058;-64
2021/03/28 12:47:50;;;;;;;7.43;2.38;;;8.80;99.90;;;;;;4979535;28;20069;-65
2021/03/28 12:50:17;;;;;;;6.90;2.67;;;8.70;99.90;;;;;;4976348;28;22193;-64
2021/03/28 12:52:47;;;;;;;6.13;1.70;;;8.50;99.90;;;;;;4979082;28;20148;-64
2021/03/28 12:55:35;;;;;;;10.15;3.38;;;8.70;99.90;;;;;;4978213;28;20061;-63
2021/03/28 12:58:17;;;;;;;4.60;1.80;;;8.70;99.90;;;;;;4977125;28;20058;-63
2021/03/28 13:00:51;;;;;;;6.53;1.88;;;8.80;99.90;;;;;;4972942;28;20058;-66
2021/03/28 13:03:39;;;;;;;4.57;1.50;;;8.80;99.90;;;;;;4971243;28;20057;-68
2021/03/28 13:06:17;;;;;;;6.13;1.65;;;8.90;99.90;;;;;;4977780;28;20093;-63
2021/03/28 13:08:58;;;;;;;8.00;2.28;;;9.00;99.90;;;;;;4977343;28;20054;-63
2021/03/28 13:11:43;;;;;;;6.43;1.27;;;9.10;99.90;;;;;;4979642;28;20471;-64
2021/03/28 13:14:28;;;;;;;7.85;2.10;;;9.10;99.90;;;;;;4975054;28;20104;-70
2021/03/28 13:16:59;;;;;;;6.40;2.53;;;9.20;99.90;;;;;;4976052;28;20057;-70
2021/03/28 13:19:29;;;;;;;6.55;1.33;;;9.20;99.90;;;;;;4977584;28;20136;-67
2021/03/28 13:22:01;;;;;;;12.15;2.10;;;9.20;99.90;;;;;;4978912;28;20054;-63
2021/03/28 13:24:28;;;;;;;4.15;1.20;;;9.00;99.90;;;;;;4974196;28;20061;-66
2021/03/28 13:27:13;;;;;;;3.35;1.08;;;9.10;99.90;;;;;;4976818;28;20050;-68
2021/03/28 13:29:53;;;;;;;4.75;1.13;;;9.10;99.90;;;;;;4977018;28;20050;-71
2021/03/28 13:32:36;;;;;;;4.60;1.85;;;9.00;99.90;;;;;;4977866;28;20053;-67
2021/03/28 13:35:26;;;;;;;4.40;1.70;;;9.10;99.90;;;;;;4978354;28;20061;-73
2021/03/28 13:37:54;;;;;;;12.35;2.47;;;9.00;99.90;;;;;;4976930;28;20396;-69
2021/03/28 13:40:29;;;;;;;6.32;1.70;;;9.10;99.90;;;;;;4976299;28;20503;-64
2021/03/28 13:43:01;;;;;;;6.53;1.90;;;9.20;99.90;;;;;;4976364;28;20068;-64
2021/03/28 13:45:29;;;;;;;10.18;1.70;;;9.00;99.90;;;;;;4978058;28;20078;-64
2021/03/28 13:47:58;;;;;;;8.25;1.90;;;9.10;99.90;;;;;;4975166;28;20052;-67
2021/03/28 13:50:54;;;;;;;4.38;1.65;;;9.00;99.90;;;;;;4975469;28;20546;-64
2021/03/28 13:53:32;;;;;;;8.52;2.13;;;9.00;99.90;;;;;;4975765;28;20054;-70
2021/03/28 13:56:33;;;;;;;7.80;2.25;;;9.00;99.90;;;;;;4978151;28;20754;-71
2021/03/28 13:59:21;;;;;;;7.53;2.13;;;9.10;99.90;;;;;;4990855;28;20046;-63
2021/03/28 14:02:22;;;;;;;14.82;3.92;;;9.10;99.90;;;;;;4977245;28;20116;-68
2021/03/28 14:05:06;;;;;;;8.93;3.08;;;9.20;99.90;;;;;;4976550;28;20050;-65
2021/03/28 14:07:51;;;;;;;11.13;3.28;;;9.40;99.90;;;;;;4974482;28;20046;-67
2021/03/28 14:10:24;;;;;;;9.73;3.38;;;9.30;99.90;;;;;;4974661;28;20050;-69
2021/03/28 14:12:56;;;;;;;12.23;3.72;;;9.20;99.90;;;;;;4977471;28;20054;-70
2021/03/28 14:15:33;;;;;;;6.32;2.78;;;9.10;99.90;;;;;;4973810;28;20066;-69
2021/03/28 14:18:08;;;;;;;10.40;2.58;;;9.20;99.90;;;;;;4975373;28;20125;-63
2021/03/28 14:20:38;;;;;;;10.25;3.63;;;9.30;99.90;;;;;;4974855;28;20460;-68
2021/03/28 14:23:13;;;;;;;9.32;2.85;;;9.30;99.90;;;;;;4974938;28;20153;-74
2021/03/28 14:25:45;;;;;;;10.23;3.22;;;9.40;99.90;;;;;;4976930;28;20054;-67
2021/03/28 14:28:27;;;;;;;13.35;4.32;;;9.60;99.90;;;;;;4976609;28;20377;-67
2021/03/28 14:31:14;;;;;;;13.82;3.47;;;9.60;99.90;;;;;;4976912;28;20090;-67
2021/03/28 14:34:03;;;;;;;15.88;4.10;;;9.70;99.90;;;;;;4977474;28;20053;-71
2021/03/28 14:37:07;;;;;;;10.40;5.18;;;9.80;99.90;;;;;;4979642;28;20804;-66
2021/03/28 14:40:07;;;;;;;14.02;4.97;;;9.70;99.90;;;;;;4981184;28;20478;-70